• Join FlightAware (Why Join?)
  • Login
  • US Flag 
02:36PM EDT


 

Airport Tracker/Info


-or-


 

Live Flight TrackerFlight Track Log ✈ N662US ✈ 27-Jul-2013 ✈ LLBG / TLV - KJFK

Flight Track Log - Related Links

Times and Time Zones

All times are in EDT time to prevent confusion due to time zone crossing. See the N662US flight status page for this flight to view local times or setup timezone preferences in your user account.

Time Position Orientation Groundspeed Altitude Reporting Facility
EDT Latitude Longitude Course Direction KTS MPH feet Rate Location/Type
05:43PM 32.0060 34.8760 North 2 2  Level FlightAware
05:51PM 32.0060 34.8780 90° East 7 8 60 Level FlightAware
05:52PM 32.0060 34.8790 90° East 13 15 120 Level FlightAware
05:52PM 32.0080 34.8800 23° Northeast 14 16 120 Level FlightAware
05:53PM 32.0110 34.8830 40° Northeast 16 18 120 Level FlightAware
05:54PM 32.0140 34.8860 40° Northeast 14 16 120 Level FlightAware
05:55PM 32.0150 34.8880 59° Northeast 11 13 120 Level FlightAware
05:58PM 32.2285 34.6035 310° West  Level FlightAware Approximate
05:59PM 32.3150 34.4995 316° Northwest  Level FlightAware Approximate
06:00PM 32.4041 34.3977 316° Northwest  Level FlightAware Approximate
06:01PM 32.4861 34.2879 311° West  Level FlightAware Approximate
06:02PM 32.5698 34.1802 320° Northwest  Level FlightAware Approximate
06:03PM 32.6635 34.0843 316° Northwest  Level FlightAware Approximate
06:04PM 32.7518 33.9811 313° West  Level FlightAware Approximate
06:05PM 32.8358 33.8730 313° West  Level FlightAware Approximate
06:05PM 32.0070 34.8350 254° West 186 214 1,900  Level FlightAware
06:06PM 31.9980 34.7980 254° West 186 214 2,500 1,380 Climbing FlightAware
06:06PM 31.9940 34.7710 260° West 189 217 3,200 960 Climbing FlightAware
06:07PM 32.0000 34.7380 282° West 188 216 3,500 600 Climbing FlightAware
06:07PM 32.0090 34.7130 293° West 195 224 3,800 720 Climbing FlightAware
06:08PM 32.0190 34.6790 289° West 237 273 4,200 840 Climbing FlightAware
06:08PM 32.0260 34.6470 284° West 260 299 4,600 1,200 Climbing FlightAware
06:08PM 32.0300 34.6020 276° West 286 329 5,300 1,500 Climbing FlightAware
06:09PM 32.0320 34.5830 277° West 289 333 5,700 2,160 Climbing FlightAware
06:09PM 32.0460 34.5410 291° West 295 339 6,800 2,280 Climbing FlightAware
06:10PM 32.0610 34.5030 295° West 301 346 7,800 2,400 Climbing FlightAware
06:10PM 32.0890 34.4360 296° West 310 357 9,600 2,100 Climbing FlightAware
06:11PM 32.1140 34.3750 296° West 323 372 10,700 1,200 Climbing FlightAware
06:12PM 32.1510 34.2850 296° West 359 413 11,500 960 Climbing FlightAware
06:13PM 32.1890 34.1920 296° West 408 470 12,400 1,500 Climbing FlightAware
06:13PM 32.2270 34.0970 295° West 421 484 13,800 1,800 Climbing FlightAware
06:14PM 32.2610 34.0130 296° West 429 494 15,000 1,920 Climbing FlightAware
06:15PM 32.3030 33.9090 296° West 435 501 16,600 1,920 Climbing FlightAware
06:15PM 32.3340 33.8310 295° West 438 504 17,700 1,560 Climbing FlightAware
06:16PM 32.3670 33.7530 297° West 443 510 18,800 960 Climbing FlightAware
06:17PM 32.4200 33.6160 295° West 445 512 19,400 1,620 Climbing FlightAware
06:18PM 32.4620 33.5150 296° West 454 522 21,400 1,440 Climbing FlightAware
06:19PM 32.5220 33.3630 295° West 458 527 22,100 1,140 Climbing FlightAware
06:20PM 32.5580 33.2720 295° West 471 542 23,500 1,800 Climbing FlightAware
06:20PM 32.6030 33.1590 295° West 478 550 24,500 1,140 Climbing FlightAware
06:21PM 32.6390 33.0680 295° West 478 550 25,200 960 Climbing FlightAware
06:22PM 32.6720 32.9810 294° West 481 554 25,800 1,020 Climbing FlightAware
06:22PM 32.7210 32.8580 295° West 484 557 26,700 960 Climbing FlightAware
06:23PM 32.7590 32.7600 295° West 488 562 27,300 840 Climbing FlightAware
06:24PM 32.8020 32.6520 295° West 490 564 27,900 960 Climbing FlightAware
06:25PM 32.8400 32.5540 295° West 488 562 28,700 1,020 Climbing FlightAware
06:25PM 32.8850 32.4540 298° West 492 566 29,300 840 Climbing FlightAware
06:26PM 32.9390 32.3650 306° West 498 573 29,900 420 Climbing FlightAware
06:27PM 33.0190 32.2330 306° West 497 572 30,100 60 Climbing FlightAware
06:28PM 33.0780 32.1350 306° West 497 572 30,100  Level FlightAware
06:28PM 33.1340 32.0420 306° West 496 571 30,100  Level FlightAware
06:29PM 33.1880 31.9530 306° West 490 564 30,100  Level FlightAware
06:30PM 33.2390 31.8660 305° West 487 560 30,100  Level FlightAware
06:30PM 33.2950 31.7710 305° West 484 557 30,100  Level FlightAware
06:31PM 33.3460 31.6860 306° West 480 552 30,100  Level FlightAware
06:32PM 33.4050 31.5870 306° West 483 556 30,100  Level FlightAware
06:33PM 33.4620 31.4910 305° West 478 550 30,100  Level FlightAware
06:33PM 33.5150 31.4000 305° West 481 554 30,100  Level FlightAware
06:34PM 33.5720 31.3040 305° West 481 554 30,100  Level FlightAware
06:35PM 33.6240 31.2140 305° West 481 554 30,100  Level FlightAware
06:35PM 33.6750 31.1270 305° West 479 551 30,100  Level FlightAware
06:36PM 33.7320 31.0310 306° West 479 551 30,100  Level FlightAware
06:37PM 33.7830 30.9420 305° West 478 550 30,100  Level FlightAware
06:37PM 33.8330 30.8570 305° West 479 551 30,100  Level FlightAware
06:38PM 33.8850 30.7670 305° West 479 551 30,100  Level FlightAware
06:39PM 33.9760 30.6080 305° West 481 554 30,100  Level FlightAware
06:40PM 34.0320 30.5140 306° West 481 554 30,100  Level FlightAware
06:41PM 34.0780 30.4320 304° West 481 554 30,100  Level FlightAware
06:42PM 34.1540 30.2990 305° West 481 554 30,100  Level FlightAware
06:42PM 34.2040 30.2090 304° West 480 552 30,100  Level FlightAware
06:43PM 34.2650 30.1030 305° West 472 543 30,100  Level FlightAware
06:44PM 34.3270 29.9880 303° West 472 543 30,100  Level FlightAware
06:45PM 34.3630 29.9210 303° West 472 543 30,100  Level FlightAware
06:45PM 34.4120 29.8300 303° West 472 543 30,100  Level FlightAware
06:46PM 34.4490 29.7600 303° West 472 543 30,100  Level FlightAware
06:48PM 34.5360 29.5980 303° West 472 543 30,100  Level FlightAware
06:48PM 34.6450 29.4850 320° Northwest 30,100  Level FlightAware
06:48PM 34.6730 29.4400 307° West 473 544 30,100  Level FlightAware
06:49PM 34.7170 29.3670 306° West 473 544 30,100  Level FlightAware
06:49PM 34.7740 29.2770 308° West 471 542 30,100  Level FlightAware
06:50PM 34.8330 29.1830 307° West 470 541 30,100  Level FlightAware
06:51PM 34.8880 29.0900 306° West 470 541 30,100  Level FlightAware
06:52PM 34.9560 28.9810 307° West 472 543 30,100  Level FlightAware
06:52PM 35.0120 28.8910 307° West 472 543 30,100  Level FlightAware
06:53PM 35.0660 28.8020 307° West 472 543 30,100  Level FlightAware
06:54PM 35.1370 28.6850 307° West 472 543 30,100  Level FlightAware
06:55PM 35.2250 28.5400 307° West 478 550 30,100  Level FlightAware
06:56PM 35.2770 28.4530 306° West 477 549 30,100  Level FlightAware
06:56PM 35.3330 28.3610 307° West 478 550 30,100  Level FlightAware
06:57PM 35.3870 28.2700 306° West 479 551 30,100  Level FlightAware
06:58PM 35.4400 28.1820 306° West 479 551 30,100  Level FlightAware
06:58PM 35.4870 28.1030 306° West 479 551 30,100  Level FlightAware
06:59PM 35.5520 27.9970 307° West 479 551 30,100  Level FlightAware
07:00PM 35.6090 27.8980 305° West 478 550 30,100  Level FlightAware
07:01PM 35.6560 27.8200 307° West 473 544 30,100  Level FlightAware
07:01PM 35.7150 27.7190 306° West 473 544 30,100  Level FlightAware
07:02PM 35.7610 27.6390 305° West 473 544 30,100  Level FlightAware
07:03PM 35.8150 27.5460 306° West 472 543 30,100  Level FlightAware
07:04PM 35.8820 27.4370 307° West 475 547 30,100  Level FlightAware
07:04PM 35.9390 27.3380 305° West 474 545 30,100  Level FlightAware
07:05PM 35.9850 27.2590 306° West 475 547 30,100  Level FlightAware
07:06PM 36.0410 27.1620 306° West 476 548 30,100  Level FlightAware
07:06PM 36.1000 27.0620 306° West 477 549 30,100  Level FlightAware
07:07PM 36.1590 26.9600 306° West 479 551 30,100  Level FlightAware
07:08PM 36.2120 26.8680 306° West 480 552 30,100  Level FlightAware
07:09PM 36.2660 26.7740 305° West 478 550 30,100  Level FlightAware
07:09PM 36.3130 26.6910 305° West 477 549 30,100  Level FlightAware
07:10PM 36.3720 26.5890 306° West 475 547 30,100  Level FlightAware
07:11PM 36.4240 26.4980 305° West 474 545 30,100  Level FlightAware
07:11PM 36.4810 26.3980 305° West 470 541 30,100  Level FlightAware
07:12PM 36.5330 26.3050 305° West 469 540 30,100  Level FlightAware
07:13PM 36.5880 26.2090 306° West 465 535 30,100  Level FlightAware
07:13PM 36.6400 26.1170 305° West 464 534 30,100  Level FlightAware
07:14PM 36.6790 26.0470 305° West 464 534 30,100  Level FlightAware
07:15PM 36.7340 25.9500 305° West 465 535 30,100  Level FlightAware
07:15PM 36.7830 25.8620 305° West 464 534 30,100  Level FlightAware
07:16PM 36.8370 25.7650 305° West 462 532 30,100  Level FlightAware
07:17PM 36.8890 25.6710 305° West 463 533 30,100  Level FlightAware
07:18PM 36.9400 25.5810 305° West 465 535 30,100  Level FlightAware
07:18PM 36.9880 25.4920 304° West 465 535 30,100  Level FlightAware
07:19PM 37.0370 25.4030 305° West 467 537 30,100  Level FlightAware
07:20PM 37.0870 25.3140 305° West 467 537 30,100  Level FlightAware
07:20PM 37.1460 25.2070 305° West 468 539 30,100  Level FlightAware
07:21PM 37.1980 25.1100 304° West 470 541 30,100  Level FlightAware
07:22PM 37.2640 24.9910 305° West 471 542 30,100  Level FlightAware
07:23PM 37.3180 24.8920 304° West 470 541 30,100  Level FlightAware
07:23PM 37.3660 24.8010 304° West 470 541 30,100  Level FlightAware
07:24PM 37.4230 24.6970 305° West 470 541 30,100  Level FlightAware
07:25PM 37.4710 24.6090 305° West 470 541 30,100  Level FlightAware
07:25PM 37.5250 24.5090 304° West 470 541 30,100  Level FlightAware
07:26PM 37.5640 24.4370 304° West 471 542 30,100  Level FlightAware
07:27PM 37.6170 24.3360 304° West 469 540 30,100  Level FlightAware
07:27PM 37.6650 24.2460 304° West 469 540 30,100  Level FlightAware
07:28PM 37.7100 24.1640 305° West 469 540 30,100  Level FlightAware
07:29PM 37.7580 24.0700 303° West 469 540 30,100  Level FlightAware
07:29PM 37.8100 23.9720 304° West 470 541 30,100  Level FlightAware
07:30PM 37.8600 23.8780 304° West 471 542 30,100  Level FlightAware
07:31PM 37.9140 23.7750 304° West 471 542 30,100  Level FlightAware
07:31PM 37.9630 23.6830 304° West 472 543 30,100  Level FlightAware
07:32PM 38.0100 23.5930 304° West 472 543 30,100  Level FlightAware
07:33PM 38.0620 23.4930 303° West 472 543 30,100  Level FlightAware
07:33PM 38.1050 23.4100 303° West 472 543 30,100  Level FlightAware
07:34PM 38.1560 23.3100 303° West 472 543 30,100 540 Level FlightAware
07:35PM 38.2040 23.2200 304° West 470 541 30,900 1,140 Climbing FlightAware
07:36PM 38.2560 23.1180 303° West 471 542 31,700 840 Climbing FlightAware
07:36PM 38.3050 23.0230 303° West 471 542 32,100 240 Climbing FlightAware
07:37PM 38.3570 22.9210 303° West 470 541 32,100  Level FlightAware
07:38PM 38.4050 22.8280 303° West 471 542 32,100  Level FlightAware
07:38PM 38.4510 22.7390 303° West 473 544 32,100  Level FlightAware
07:39PM 38.4970 22.6450 302° West 474 545 32,100  Level FlightAware
07:40PM 38.5590 22.5230 303° West 474 545 32,100  Level FlightAware
07:40PM 38.6040 22.4360 304° West 474 545 32,100  Level FlightAware
07:41PM 38.6740 22.2960 303° West 476 548 32,100  Level FlightAware
07:42PM 38.7230 22.1990 303° West 477 549 32,100  Level FlightAware
07:43PM 38.7750 22.0960 303° West 481 554 32,100  Level FlightAware
07:43PM 38.8220 22.0000 302° West 483 556 32,100  Level FlightAware
07:44PM 38.8770 21.8900 303° West 487 560 32,100  Level FlightAware
07:45PM 38.9190 21.8050 302° West 489 563 32,100  Level FlightAware
07:45PM 38.9680 21.7040 302° West 487 560 32,100  Level FlightAware
07:46PM 39.0170 21.6070 303° West 490 564 32,100  Level FlightAware
07:47PM 39.0620 21.5150 302° West 491 565 32,100  Level FlightAware
07:47PM 39.1120 21.4130 302° West 492 566 32,100  Level FlightAware
07:48PM 39.1810 21.2700 302° West 497 572 32,100  Level FlightAware
07:49PM 39.2350 21.1590 302° West 496 571 32,100  Level FlightAware
07:50PM 39.2840 21.0560 302° West 496 571 32,100  Level FlightAware
07:51PM 39.3370 20.9480 302° West 495 570 32,100  Level FlightAware
07:51PM 39.3860 20.8450 302° West 495 570 32,100  Level FlightAware
07:52PM 39.4370 20.7390 302° West 495 570 32,100  Level FlightAware
07:53PM 39.4850 20.6380 302° West 496 571 32,100  Level FlightAware
07:53PM 39.5330 20.5370 302° West 497 572 32,100  Level FlightAware
07:54PM 39.5860 20.4250 302° West 499 574 32,100  Level FlightAware
07:55PM 39.6390 20.3130 302° West 502 578 32,100  Level FlightAware
07:55PM 39.6690 20.2510 302° West 504 580 32,100  Level FlightAware
07:56PM 39.7230 20.1350 301° West 506 582 32,100  Level FlightAware
07:57PM 39.7760 20.0220 301° West 509 586 32,100  Level FlightAware
07:57PM 39.8250 19.9180 302° West 508 585 32,100  Level FlightAware
07:58PM 39.8780 19.8030 301° West 508 585 32,100  Level FlightAware
07:59PM 39.9260 19.6980 301° West 508 585 32,100  Level FlightAware
07:59PM 39.9690 19.6060 301° West 507 583 32,100  Level FlightAware
08:00PM 40.0230 19.4880 301° West 507 583 32,100  Level FlightAware
08:01PM 40.0690 19.3880 301° West 506 582 32,100  Level FlightAware
08:01PM 40.1050 19.3090 301° West 506 582 32,100  Level FlightAware
08:02PM 40.1550 19.2140 305° West 506 582 32,100  Level FlightAware
08:03PM 40.2300 19.0770 306° West 505 581 32,100  Level FlightAware
08:03PM 40.2840 18.9770 305° West 504 580 32,100  Level FlightAware
08:04PM 40.3430 18.8680 305° West 503 579 32,100  Level FlightAware
08:05PM 40.3960 18.7680 305° West 503 579 32,100  Level FlightAware
08:05PM 40.4530 18.6630 306° West 502 578 32,100  Level FlightAware
08:06PM 40.5090 18.5590 305° West 501 577 32,100  Level FlightAware
08:07PM 40.5650 18.4550 305° West 498 573 32,100  Level FlightAware
08:08PM 40.6230 18.3450 305° West 495 570 32,100  Level FlightAware
08:08PM 40.6750 18.2470 305° West 493 567 32,100  Level FlightAware
08:09PM 40.7330 18.1360 305° West 491 565 32,100  Level FlightAware
08:10PM 40.7830 18.0400 305° West 490 564 32,100  Level FlightAware
08:10PM 40.8400 17.9320 305° West 487 560 32,100  Level FlightAware
08:11PM 40.8870 17.8450 306° West 485 558 32,100  Level FlightAware
08:12PM 40.9430 17.7350 304° West 484 557 32,100  Level FlightAware
08:12PM 41.0010 17.6250 305° West 483 556 32,100  Level FlightAware
08:13PM 41.0510 17.5270 304° West 484 557 32,100  Level FlightAware
08:14PM 41.1050 17.4220 304° West 485 558 32,100  Level FlightAware
08:15PM 41.1570 17.3220 305° West 485 558 32,100  Level FlightAware
08:15PM 41.2110 17.2180 305° West 485 558 32,100  Level FlightAware
08:16PM 41.2660 17.1100 304° West 486 559 32,100  Level FlightAware
08:17PM 41.3170 17.0110 304° West 487 560 32,100  Level FlightAware
08:17PM 41.3630 16.9190 304° West 487 560 32,100  Level FlightAware
08:18PM 41.4160 16.8140 304° West 489 563 32,100  Level FlightAware
08:19PM 41.4670 16.7140 304° West 490 564 32,100  Level FlightAware
08:19PM 41.5240 16.6010 304° West 490 564 32,100  Level FlightAware
08:20PM 41.5740 16.5000 304° West 490 564 32,100  Level FlightAware
08:21PM 41.6250 16.3970 304° West 490 564 32,100  Level FlightAware
08:21PM 41.6770 16.2940 304° West 489 563 32,100  Level FlightAware
08:22PM 41.7230 16.2030 304° West 490 564 32,100  Level FlightAware
08:23PM 41.7770 16.0920 303° West 490 564 32,100  Level FlightAware
08:23PM 41.8270 15.9900 303° West 489 563 32,100  Level FlightAware
08:24PM 41.8800 15.8840 304° West 488 562 32,100  Level FlightAware
08:25PM 41.9330 15.7730 303° West 487 560 32,100  Level FlightAware
08:25PM 41.9810 15.6770 304° West 487 560 32,100  Level FlightAware
08:26PM 42.0350 15.5650 303° West 487 560 32,100  Level FlightAware
08:27PM 42.0840 15.4640 303° West 486 559 32,100  Level FlightAware
08:28PM 42.1320 15.3650 303° West 486 559 32,100  Level FlightAware
08:28PM 42.1810 15.2630 303° West 485 558 32,100  Level FlightAware
08:29PM 42.2330 15.1560 303° West 485 558 32,100  Level FlightAware
08:29PM 42.2750 15.0650 302° West 484 557 32,100  Level FlightAware
08:30PM 42.3240 14.9630 303° West 483 556 32,100  Level FlightAware
08:31PM 42.3720 14.8640 303° West 483 556 32,100  Level FlightAware
08:32PM 42.4140 14.7710 301° West 483 556 32,100  Level FlightAware
08:32PM 42.4830 14.6260 303° West 483 556 32,100  Level FlightAware
08:33PM 42.5310 14.5210 302° West 483 556 32,100  Level FlightAware
08:34PM 42.5690 14.4400 303° West 483 556 32,100  Level FlightAware
08:34PM 42.6050 14.3620 302° West 483 556 32,100  Level FlightAware
08:35PM 42.6770 14.2100 303° West 481 554 32,100  Level FlightAware
08:36PM 42.7440 14.0650 302° West 482 555 32,100  Level FlightAware
08:37PM 42.8080 13.9290 303° West 486 559 32,100  Level FlightAware
08:38PM 42.8780 13.7750 302° West 487 560 32,100  Level FlightAware
08:39PM 42.9250 13.6710 302° West 486 559 32,100  Level FlightAware
08:39PM 42.9750 13.5610 302° West 486 559 32,100  Level FlightAware
08:40PM 43.0250 13.4480 301° West 486 559 32,100  Level FlightAware
08:41PM 43.0750 13.3280 300° West 487 560 32,100  Level FlightAware
08:41PM 43.1140 13.2370 300° West 488 562 32,100  Level FlightAware
08:42PM 43.1630 13.1230 301° West 487 560 32,100  Level FlightAware
08:43PM 43.2090 13.0130 300° West 487 560 32,100  Level FlightAware
08:43PM 43.2470 12.9250 301° West 486 559 32,100  Level FlightAware
08:44PM 43.2930 12.8130 299° West 486 559 32,100  Level FlightAware
08:45PM 43.3430 12.6950 300° West 487 560 32,100  Level FlightAware
08:45PM 43.3880 12.5880 300° West 487 560 32,100  Level FlightAware
08:46PM 43.4340 12.4750 299° West 487 560 32,100  Level FlightAware
08:47PM 43.4840 12.3560 300° West 485 558 32,100  Level FlightAware
08:47PM 43.5280 12.2480 299° West 485 558 32,100  Level FlightAware
08:48PM 43.5670 12.1520 299° West 483 556 32,100  Level FlightAware
08:49PM 43.6160 12.0340 300° West 481 554 32,100  Level FlightAware
08:49PM 43.6590 11.9270 299° West 480 552 32,100  Level FlightAware
08:50PM 43.6970 11.8330 299° West 480 552 32,100  Level FlightAware
08:51PM 43.7410 11.7230 299° West 480 552 32,100  Level FlightAware
08:51PM 43.7880 11.6080 300° West 480 552 32,100  Level FlightAware
08:52PM 43.8250 11.5100 298° West 480 552 32,100  Level FlightAware
08:53PM 43.8660 11.3970 297° West 482 555 32,100  Level FlightAware
08:53PM 43.9050 11.2760 294° West 483 556 32,100  Level FlightAware
08:54PM 43.9400 11.1720 295° West 484 557 32,100  Level FlightAware
08:55PM 43.9770 11.0590 294° West 484 557 32,100  Level FlightAware
08:55PM 44.0150 10.9460 295° West 485 558 32,100  Level FlightAware
08:56PM 44.0560 10.8220 295° West 485 558 32,100  Level FlightAware
08:57PM 44.0940 10.7090 295° West 485 558 32,100  Level FlightAware
08:57PM 44.1350 10.5810 294° West 484 557 32,100  Level FlightAware
08:58PM 44.1720 10.4710 295° West 483 556 32,100  Level FlightAware
08:59PM 44.2080 10.3570 294° West 483 556 32,100  Level FlightAware
08:59PM 44.2420 10.2550 295° West 483 556 32,100  Level FlightAware
09:00PM 44.2840 10.1250 294° West 483 556 32,100  Level FlightAware
09:01PM 44.3150 10.0280 294° West 483 556 32,100  Level FlightAware
09:02PM 44.3610 9.8850 294° West 483 556 32,100  Level FlightAware
09:02PM 44.3970 9.7710 294° West 484 557 32,100  Level FlightAware
09:03PM 44.4380 9.6390 294° West 484 557 32,100  Level FlightAware
09:04PM 44.4730 9.5310 294° West 483 556 32,100  Level FlightAware
09:04PM 44.5120 9.4050 294° West 482 555 32,100  Level FlightAware
09:05PM 44.5480 9.2910 294° West 480 552 32,100  Level FlightAware
09:06PM 44.5840 9.1770 294° West 479 551 32,100  Level FlightAware
09:06PM 44.6250 9.0430 293° West 477 549 32,100  Level FlightAware
09:07PM 44.6590 8.9320 293° West 476 548 32,100  Level FlightAware
09:08PM 44.6960 8.8130 294° West 475 547 32,100  Level FlightAware
09:08PM 44.7270 8.7110 293° West 476 548 32,100  Level FlightAware
09:09PM 44.7640 8.5880 293° West 476 548 32,100  Level FlightAware
09:10PM 44.7960 8.4860 294° West 476 548 32,100  Level FlightAware
09:10PM 44.8270 8.3800 292° West 476 548 32,100  Level FlightAware
09:11PM 44.8660 8.2520 293° West 477 549 32,100  Level FlightAware
09:12PM 44.9000 8.1370 293° West 478 550 32,100  Level FlightAware
09:13PM 44.9390 8.0050 293° West 477 549  Descending FlightAware
09:13PM 44.9730 7.8900 293° West 476 548 32,100 22,920 Climbing FlightAware
09:14PM 45.0100 7.7640 293° West 476 548 32,100  Level FlightAware
09:15PM 45.0440 7.6490 293° West 474 545 32,100  Level FlightAware
09:15PM 45.0720 7.5450 291° West 473 544 32,100  Level FlightAware
09:16PM 45.1030 7.4260 290° West 473 544 32,100  Level FlightAware
09:17PM 45.1340 7.3060 290° West 474 545 32,100  Level FlightAware
09:17PM 45.1660 7.1840 290° West 475 547 32,100  Level FlightAware
09:18PM 45.2000 7.0530 290° West 475 547 32,100  Level FlightAware
09:19PM 45.2300 6.9380 290° West 476 548 32,100  Level FlightAware
09:19PM 45.2630 6.8100 290° West 474 545 32,100  Level FlightAware
09:20PM 45.2880 6.7100 290° West 474 545 32,100  Level FlightAware
09:21PM 45.3150 6.5860 287° West 473 544 32,100 600 Level FlightAware
09:21PM 45.3420 6.4550 286° West 472 543 33,000 780 Climbing FlightAware
09:22PM 45.3610 6.3590 286° West 472 543 33,100 60 Climbing FlightAware
09:23PM 45.3870 6.2280 286° West 472 543 33,100  Level FlightAware
09:23PM 45.4110 6.1080 286° West 472 543 33,100  Level FlightAware
09:24PM 45.4370 5.9760 286° West 473 544 33,100  Level FlightAware
09:25PM 45.4600 5.8560 285° West 473 544 33,100  Level FlightAware
09:26PM 45.4860 5.7250 286° West 472 543 33,100  Level FlightAware
09:26PM 45.5090 5.6050 285° West 472 543 33,100  Level FlightAware
09:27PM 45.5320 5.4850 285° West 471 542 33,100  Level FlightAware
09:28PM 45.5550 5.3620 285° West 472 543 33,100  Level FlightAware
09:28PM 45.5770 5.2440 285° West 473 544 33,100  Level FlightAware
09:29PM 45.6010 5.1200 286° West 475 547 33,100  Level FlightAware
09:29PM 45.6220 5.0080 285° West 475 547 33,100  Level FlightAware
09:30PM 45.6440 4.8870 285° West 474 545 33,100  Level FlightAware
09:31PM 45.6660 4.7660 285° West 474 545 33,100  Level FlightAware
09:32PM 45.6910 4.6330 285° West 475 547 33,100  Level FlightAware
09:32PM 45.7160 4.4960 285° West 473 544 33,100  Level FlightAware
09:33PM 45.7390 4.3690 285° West 473 544 33,100  Level FlightAware
09:34PM 45.7540 4.2500 280° West 470 541 33,100  Level FlightAware
09:34PM 45.7670 4.1070 277° West 473 544 33,100  Level FlightAware
09:35PM 45.7750 3.9860 275° West 472 543 33,100  Level FlightAware
09:36PM 45.7840 3.8460 275° West 475 547 33,100  Level FlightAware
09:36PM 45.7930 3.7220 276° West 470 541 33,100  Level FlightAware
09:37PM 45.8030 3.5850 276° West 470 541 33,100  Level FlightAware
09:38PM 45.8110 3.4710 276° West 468 539 33,100  Level FlightAware
09:38PM 45.8190 3.3540 276° West 467 537 33,100  Level FlightAware
09:39PM 45.8300 3.1850 275° West 468 539 33,100  Level FlightAware
09:40PM 45.8380 3.0670 276° West 468 539 33,100  Level FlightAware
09:41PM 45.8440 2.9650 275° West 467 537 33,100  Level FlightAware
09:41PM 45.8530 2.8240 275° West 465 535 33,100  Level FlightAware
09:42PM 45.8610 2.6920 275° West 465 535 33,100  Level FlightAware
09:43PM 45.8710 2.5200 275° West 463 533 33,100  Level FlightAware
09:44PM 45.8790 2.3830 275° West 463 533 33,100  Level FlightAware
09:44PM 45.8860 2.2690 275° West 464 534 33,100  Level FlightAware
09:45PM 45.8920 2.1500 274° West 463 533 33,100  Level FlightAware
09:46PM 45.9000 2.0150 275° West 464 534 33,100  Level FlightAware
09:46PM 45.9070 1.8890 275° West 464 534 33,100  Level FlightAware
09:47PM 45.9140 1.7510 274° West 467 537 33,100  Level FlightAware
09:48PM 45.9200 1.6360 274° West 472 543 33,100  Level FlightAware
09:49PM 45.9270 1.4950 274° West 474 545 33,100  Level FlightAware
09:49PM 45.9320 1.3850 274° West 475 547 33,100  Level FlightAware
09:50PM 45.9390 1.2560 275° West 475 547 33,100  Level FlightAware
09:51PM 45.9450 1.1180 274° West 476 548 33,100  Level FlightAware
09:51PM 45.9520 0.9750 274° West 478 550 33,100  Level FlightAware
09:52PM 45.9580 0.8330 274° West 478 550 33,100  Level FlightAware
09:53PM 45.9630 0.7120 273° West 479 551 33,100  Level FlightAware
09:53PM 45.9690 0.5790 274° West 481 554 33,100  Level FlightAware
09:54PM 45.9730 0.4700 273° West 483 556 33,100  Level FlightAware
09:55PM 45.9790 0.3220 273° West 485 558 33,100  Level FlightAware
09:55PM 45.9840 0.2030 274° West 489 563 33,100  Level FlightAware
09:56PM 46.0030 0.0510 280° West 498 573 33,100  Level FlightAware
09:57PM 46.0220 -0.0650 283° West 499 574 33,100  Level FlightAware
09:57PM 46.0440 -0.2110 282° West 499 574 33,100  Level FlightAware
09:58PM 46.0660 -0.3610 282° West 503 579 33,100  Level FlightAware
09:59PM 46.0870 -0.4910 283° West 502 578 33,100  Level FlightAware
10:00PM 46.1170 -0.6990 282° West 497 572 33,100  Level FlightAware
10:01PM 46.1430 -0.8570 283° West 496 571 33,100  Level FlightAware
10:02PM 46.1660 -1.0060 283° West 497 572 33,100  Level FlightAware
10:02PM 46.1870 -1.1520 282° West 495 570 33,100  Level FlightAware
10:03PM 46.2050 -1.2840 281° West 495 570 33,100  Level FlightAware
10:04PM 46.2250 -1.4270 281° West 496 571 33,100  Level FlightAware
10:04PM 46.2390 -1.5280 281° West 499 574 33,100  Level FlightAware
10:05PM 46.2600 -1.6780 281° West 501 577 33,100  Level FlightAware
10:06PM 46.2780 -1.8060 282° West 500 575 33,100  Level FlightAware
10:06PM 46.2940 -1.9240 281° West 499 574 33,100  Level FlightAware
10:07PM 46.3130 -2.0670 281° West 493 567 33,100  Level FlightAware
10:08PM 46.3300 -2.1990 281° West 488 562 33,100  Level FlightAware
10:08PM 46.3450 -2.3110 281° West 484 557 33,100  Level FlightAware
10:09PM 46.3620 -2.4380 281° West 480 552 33,100  Level FlightAware
10:10PM 46.3790 -2.5760 280° West 477 549 33,100  Level FlightAware
10:10PM 46.3950 -2.6950 281° West 473 544 33,100  Level FlightAware
10:11PM 46.4130 -2.8380 280° West 472 543 33,100  Level FlightAware
10:12PM 46.4290 -2.9620 281° West 471 542 33,100  Level FlightAware
10:12PM 46.4450 -3.0980 280° West 470 541 33,100  Level FlightAware
10:13PM 46.4590 -3.2090 280° West 470 541 33,100  Level FlightAware
10:14PM 46.4750 -3.3400 280° West 471 542 33,100  Level FlightAware
10:14PM 46.4910 -3.4680 280° West 475 547 33,100  Level FlightAware
10:15PM 46.5070 -3.6060 280° West 479 551 33,100  Level FlightAware
10:16PM 46.5230 -3.7370 280° West 481 554 33,100  Level FlightAware
10:16PM 46.5380 -3.8640 280° West 483 556 33,100  Level FlightAware
10:17PM 46.5550 -4.0080 280° West 484 557 33,100  Level FlightAware
10:18PM 46.5680 -4.1240 279° West 485 558 33,100  Level FlightAware
10:18PM 46.5820 -4.2490 279° West 486 559 33,100  Level FlightAware
10:19PM 46.5980 -4.3840 280° West 485 558 33,100  Level FlightAware
10:20PM 46.6120 -4.5130 279° West 485 558 33,100  Level FlightAware
10:20PM 46.6250 -4.6320 279° West 484 557 33,100  Level FlightAware
10:21PM 46.6400 -4.7730 279° West 482 555 33,100  Level FlightAware
10:22PM 46.6540 -4.9010 279° West 481 554 33,100  Level FlightAware
10:22PM 46.6660 -5.0120 279° West 480 552 33,100  Level FlightAware
10:23PM 46.6810 -5.1530 279° West 478 550 33,100  Level FlightAware
10:24PM 46.6940 -5.2790 279° West 477 549 33,100  Level FlightAware
10:25PM 46.7070 -5.4060 279° West 475 547 33,100  Level FlightAware
10:25PM 46.7220 -5.5480 279° West 474 545 33,100  Level FlightAware
10:26PM 46.7350 -5.6840 278° West 474 545 33,100  Level FlightAware
10:27PM 46.7480 -5.8110 279° West 476 548 33,100  Level FlightAware
10:27PM 46.7580 -5.9120 278° West 477 549 33,100  Level FlightAware
10:28PM 46.7710 -6.0490 278° West 476 548 33,100  Level FlightAware
10:29PM 46.7820 -6.1640 278° West 476 548 33,100  Level FlightAware
10:29PM 46.7970 -6.3190 278° West 475 547 33,100 -540 Level FlightAware
10:30PM 46.8100 -6.4590 278° West 476 548 32,300 -660 Descending FlightAware
10:31PM 46.8260 -6.6250 278° West 478 550 32,100 -120 Descending FlightAware
10:32PM 46.8460 -6.8530 277° West 480 552 32,100  Level FlightAware
10:33PM 46.8630 -7.0460 277° West 480 552 32,100  Level FlightAware
10:34PM 46.8750 -7.1820 277° West 476 548 32,100  Level FlightAware
10:35PM 46.8920 -7.3800 277° West 474 545 32,100  Level FlightAware
10:36PM 46.9010 -7.4880 277° West 474 545 32,100  Level FlightAware
10:36PM 46.9090 -7.5850 277° West 474 545 32,100  Level FlightAware
10:37PM 46.9200 -7.7150 277° West 474 545 32,100  Level FlightAware
10:38PM 46.9280 -7.8130 277° West 474 545 32,100  Level FlightAware
10:38PM 46.9390 -7.9460 277° West 474 545 32,100  Level FlightAware
10:39PM 46.9480 -8.0430 278° West 474 545 32,100  Level FlightAware
10:40PM 46.9560 -8.1410 277° West 474 545 32,100  Level FlightAware
10:40PM 46.9670 -8.2710 277° West 474 545 32,100  Level FlightAware
10:41PM 46.9780 -8.4010 277° West 474 545 32,100  Level FlightAware
10:42PM 46.9860 -8.5010 277° West 474 545 32,100  Level FlightAware
10:43PM 46.9970 -8.6320 277° West 474 545 32,100  Level FlightAware
10:43PM 47.0050 -8.7290 277° West 474 545 32,100  Level FlightAware
10:44PM 47.0160 -8.8600 277° West 474 545 32,100  Level FlightAware
10:47PM 47.1070 -9.3042 287° West  Level Estimated
10:48PM 47.1438 -9.4872 287° West  Level Estimated
10:49PM 47.1804 -9.6704 286° West  Level Estimated
10:50PM 47.2167 -9.8539 286° West  Level Estimated
10:51PM 47.2527 -10.0376 286° West  Level Estimated
10:52PM 47.2884 -10.2216 286° West  Level Estimated
10:53PM 47.3239 -10.4058 286° West  Level Estimated
10:54PM 47.3590 -10.5903 286° West  Level Estimated
10:55PM 47.3938 -10.7750 286° West  Level Estimated
10:56PM 47.4283 -10.9600 285° West  Level Estimated
10:57PM 47.4626 -11.1452 285° West  Level Estimated
10:58PM 47.4965 -11.3306 285° West  Level Estimated
10:59PM 47.5301 -11.5163 285° West  Level Estimated
11:00PM 47.5635 -11.7022 285° West  Level Estimated
11:01PM 47.5965 -11.8884 285° West  Level Estimated
11:02PM 47.6292 -12.0747 285° West  Level Estimated
11:03PM 47.6617 -12.2614 285° West  Level Estimated
11:04PM 47.6938 -12.4482 284° West  Level Estimated
11:05PM 47.7256 -12.6353 284° West  Level Estimated
11:06PM 47.7571 -12.8226 284° West  Level Estimated
11:07PM 47.7883 -13.0101 284° West  Level Estimated
11:08PM 47.8192 -13.1979 284° West  Level Estimated
11:09PM 47.8498 -13.3859 284° West  Level Estimated
11:10PM 47.8801 -13.5741 284° West  Level Estimated
11:11PM 47.9101 -13.7625 283° West  Level Estimated
11:12PM 47.9398 -13.9511 283° West  Level Estimated
11:13PM 47.9692 -14.1400 283° West  Level Estimated
11:14PM 47.9982 -14.3291 283° West  Level Estimated
11:15PM 48.0270 -14.5184 283° West  Level Estimated
11:16PM 48.0554 -14.7079 283° West  Level Estimated
11:17PM 48.0835 -14.8973 283° West  Level Estimated
11:18PM 48.1113 -15.0869 282° West  Level Estimated
11:19PM 48.1387 -15.2767 282° West  Level Estimated
11:20PM 48.1658 -15.4667 282° West  Level Estimated
11:21PM 48.1927 -15.6569 282° West  Level Estimated
11:22PM 48.2192 -15.8473 282° West  Level Estimated
11:23PM 48.2454 -16.0379 282° West  Level Estimated
11:24PM 48.2713 -16.2287 282° West  Level Estimated
11:25PM 48.2968 -16.4197 281° West  Level Estimated
11:26PM 48.3221 -16.6109 281° West  Level Estimated
11:27PM 48.3470 -16.8022 281° West  Level Estimated
11:28PM 48.3716 -16.9938 281° West  Level Estimated
11:29PM 48.3959 -17.1856 281° West  Level Estimated
11:30PM 48.4199 -17.3774 281° West  Level Estimated
11:31PM 48.4436 -17.5693 281° West  Level Estimated
11:32PM 48.4669 -17.7615 280° West  Level Estimated
11:33PM 48.4899 -17.9539 280° West  Level Estimated
11:34PM 48.5126 -18.1464 280° West  Level Estimated
11:35PM 48.5349 -18.3391 280° West  Level Estimated
11:36PM 48.5570 -18.5319 280° West  Level Estimated
11:37PM 48.5787 -18.7249 280° West  Level Estimated
11:38PM 48.6001 -18.9181 280° West  Level Estimated
11:39PM 48.6212 -19.1115 279° West  Level Estimated
11:39PM 48.0000 -20.0000 274° West 481 554 34,000  Level ETMS Enhanced Traffic Management System
11:40PM 48.6419 -19.3050 279° West  Level Estimated
11:41PM 48.6623 -19.4986 279° West  Level Estimated
11:42PM 48.6824 -19.6925 279° West  Level Estimated
11:43PM 48.7022 -19.8864 279° West  Level Estimated
11:44PM 48.7217 -20.0806 279° West  Level Estimated
11:45PM 48.0523 -21.3976 273° West 481 554 34,000  Level FlightAware Transoceanic
11:46PM 48.0583 -21.5974 273° West 481 554 34,000  Level FlightAware Transoceanic
11:47PM 48.0641 -21.7973 272° West 481 554 34,000  Level FlightAware Transoceanic
11:48PM 48.0695 -21.9973 272° West 481 554 34,000  Level FlightAware Transoceanic
11:49PM 48.0745 -22.1973 272° West 481 554 34,000  Level FlightAware Transoceanic
11:50PM 48.0792 -22.3973 272° West 481 554 34,000  Level FlightAware Transoceanic
11:51PM 48.0835 -22.5974 272° West 481 554 34,000  Level FlightAware Transoceanic
11:52PM 48.0876 -22.7975 272° West 481 554 34,000  Level FlightAware Transoceanic
11:53PM 48.0912 -22.9976 271° West 481 554 34,000  Level FlightAware Transoceanic
11:54PM 48.0945 -23.1978 271° West 481 554 34,000  Level FlightAware Transoceanic
11:55PM 48.0975 -23.3980 271° West 481 554 34,000  Level FlightAware Transoceanic
11:56PM 48.1001 -23.5982 271° West 481 554 34,000  Level FlightAware Transoceanic
11:57PM 48.1023 -23.7984 271° West 481 554 34,000  Level FlightAware Transoceanic
11:58PM 48.1043 -23.9986 271° West 481 554 34,000  Level FlightAware Transoceanic
11:59PM 48.1058 -24.1989 271° West 481 554 34,000  Level FlightAware Transoceanic
12:00AM 48.1070 -24.3992 270° West 481 554 34,000  Level FlightAware Transoceanic
12:01AM 48.1079 -24.5994 270° West 481 554 34,000  Level FlightAware Transoceanic
12:02AM 48.1084 -24.7997 270° West 481 554 34,000  Level FlightAware Transoceanic
12:03AM 48.1086 -25.0000 270° West 481 554 34,000  Level FlightAware Transoceanic
12:04AM 48.1084 -25.2003 270° West 481 554 34,000  Level FlightAware Transoceanic
12:05AM 48.1079 -25.4006 270° West 481 554 34,000  Level FlightAware Transoceanic
12:06AM 48.1070 -25.6008 270° West 481 554 34,000  Level FlightAware Transoceanic
12:07AM 48.1058 -25.8011 269° West 481 554 34,000  Level FlightAware Transoceanic
12:08AM 48.1043 -26.0014 269° West 481 554 34,000  Level FlightAware Transoceanic
12:09AM 48.1023 -26.2016 269° West 481 554 34,000  Level FlightAware Transoceanic
12:10AM 48.1001 -26.4018 269° West 481 554 34,000  Level FlightAware Transoceanic
12:11AM 48.0975 -26.6020 269° West 481 554 34,000  Level FlightAware Transoceanic
12:12AM 48.0945 -26.8022 269° West 481 554 34,000  Level FlightAware Transoceanic
12:13AM 48.0912 -27.0024 269° West 481 554 34,000  Level FlightAware Transoceanic
12:14AM 48.0876 -27.2025 268° West 481 554 34,000  Level FlightAware Transoceanic
12:15AM 48.0835 -27.4026 268° West 481 554 34,000  Level FlightAware Transoceanic
12:16AM 48.0792 -27.6027 268° West 481 554 34,000  Level FlightAware Transoceanic
12:17AM 48.0745 -27.8027 268° West 481 554 34,000  Level FlightAware Transoceanic
12:18AM 48.0695 -28.0027 268° West 481 554 34,000  Level FlightAware Transoceanic
12:19AM 48.0641 -28.2027 268° West 481 554 34,000  Level FlightAware Transoceanic
12:20AM 48.0583 -28.4026 267° West 481 554 34,000  Level FlightAware Transoceanic
12:21AM 48.0523 -28.6024 267° West 481 554 34,000  Level FlightAware Transoceanic
12:22AM 48.0458 -28.8023 267° West 481 554 34,000  Level FlightAware Transoceanic
12:23AM 48.0391 -29.0020 267° West 481 554 34,000  Level FlightAware Transoceanic
12:24AM 48.0319 -29.2017 267° West 481 554 34,000  Level FlightAware Transoceanic
12:25AM 48.0245 -29.4014 267° West 481 554 34,000  Level FlightAware Transoceanic
12:26AM 48.0167 -29.6010 267° West 481 554 34,000  Level FlightAware Transoceanic
12:27AM 48.0085 -29.8005 266° West 481 554 34,000  Level FlightAware Transoceanic
12:28AM 48.0003 -29.9938 266° West  Level FlightAware Approximate
12:29AM 47.9917 -30.1870 266° West  Level FlightAware Approximate
12:30AM 47.9899 -30.1805 265° West  Level FlightAware Approximate
12:31AM 47.9788 -30.3734 265° West  Level FlightAware Approximate
12:32AM 47.9674 -30.5662 265° West  Level FlightAware Approximate
12:33AM 47.9557 -30.7588 265° West  Level FlightAware Approximate
12:34AM 47.9436 -30.9514 265° West  Level FlightAware Approximate
12:35AM 47.9312 -31.1439 265° West  Level FlightAware Approximate
12:36AM 47.9185 -31.3364 264° West  Level FlightAware Approximate
12:37AM 47.9055 -31.5287 264° West  Level FlightAware Approximate
12:38AM 47.8921 -31.7209 264° West  Level FlightAware Approximate
12:39AM 47.8784 -31.9130 264° West  Level FlightAware Approximate
12:40AM 47.8644 -32.1050 264° West  Level FlightAware Approximate
12:41AM 47.8501 -32.2970 264° West  Level FlightAware Approximate
12:42AM 47.8355 -32.4888 264° West  Level FlightAware Approximate
12:43AM 47.8206 -32.6805 263° West  Level FlightAware Approximate
12:44AM 47.8053 -32.8721 263° West  Level FlightAware Approximate
12:45AM 47.7897 -33.0635 263° West  Level FlightAware Approximate
12:46AM 47.7738 -33.2549 263° West  Level FlightAware Approximate
12:47AM 47.7576 -33.4461 263° West  Level FlightAware Approximate
12:48AM 47.7410 -33.6372 263° West  Level FlightAware Approximate
12:49AM 47.7242 -33.8282 263° West  Level FlightAware Approximate
12:50AM 47.7070 -34.0191 262° West  Level FlightAware Approximate
12:51AM 47.6895 -34.2098 262° West  Level FlightAware Approximate
12:52AM 47.6717 -34.4005 262° West  Level FlightAware Approximate
12:53AM 47.6536 -34.5909 262° West  Level FlightAware Approximate
12:54AM 47.6351 -34.7813 262° West  Level FlightAware Approximate
12:55AM 47.6164 -34.9715 262° West  Level FlightAware Approximate
12:56AM 47.5973 -35.1616 262° West  Level FlightAware Approximate
12:57AM 47.5779 -35.3515 261° West  Level FlightAware Approximate
12:58AM 47.5583 -35.5413 261° West  Level FlightAware Approximate
12:59AM 47.5382 -35.7309 261° West  Level FlightAware Approximate
01:00AM 47.5179 -35.9205 261° West  Level FlightAware Approximate
01:01AM 47.4973 -36.1098 261° West  Level FlightAware Approximate
01:02AM 47.4763 -36.2990 261° West  Level FlightAware Approximate
01:03AM 47.4551 -36.4881 261° West  Level FlightAware Approximate
01:04AM 47.4335 -36.6770 260° West  Level FlightAware Approximate
01:05AM 47.4117 -36.8657 260° West  Level FlightAware Approximate
01:06AM 47.3895 -37.0543 260° West  Level FlightAware Approximate
01:07AM 47.3670 -37.2428 260° West  Level FlightAware Approximate
01:08AM 47.3442 -37.4310 260° West  Level FlightAware Approximate
01:09AM 47.3211 -37.6191 260° West  Level FlightAware Approximate
01:10AM 47.2977 -37.8071 260° West  Level FlightAware Approximate
01:11AM 47.2739 -37.9948 260° West  Level FlightAware Approximate
01:12AM 47.2499 -38.1824 259° West  Level FlightAware Approximate
01:13AM 47.2256 -38.3699 259° West  Level FlightAware Approximate
01:14AM 47.2009 -38.5571 259° West  Level FlightAware Approximate
01:15AM 47.1760 -38.7442 259° West  Level FlightAware Approximate
01:16AM 47.1507 -38.9311 259° West  Level FlightAware Approximate
01:17AM 47.1252 -39.1178 259° West  Level FlightAware Approximate
01:18AM 47.0993 -39.3044 259° West  Level FlightAware Approximate
01:19AM 47.0732 -39.4907 258° West  Level FlightAware Approximate
01:20AM 47.0467 -39.6769 258° West  Level FlightAware Approximate
01:21AM 47.0199 -39.8629 258° West  Level FlightAware Approximate
01:22AM 46.9972 -40.0496 265° West  Level FlightAware Approximate
01:23AM 46.9865 -40.2389 265° West  Level FlightAware Approximate
01:24AM 46.9755 -40.4282 265° West  Level FlightAware Approximate
01:25AM 46.9642 -40.6173 265° West  Level FlightAware Approximate
01:26AM 46.9526 -40.8064 265° West  Level FlightAware Approximate
01:27AM 46.9406 -40.9953 265° West  Level FlightAware Approximate
01:28AM 46.9283 -41.1842 265° West  Level FlightAware Approximate
01:29AM 46.9158 -41.3730 265° West  Level FlightAware Approximate
01:30AM 46.9029 -41.5617 264° West  Level FlightAware Approximate
01:31AM 46.8897 -41.7504 264° West  Level FlightAware Approximate
01:32AM 46.8762 -41.9389 264° West  Level FlightAware Approximate
01:33AM 46.8624 -42.1273 264° West  Level FlightAware Approximate
01:34AM 46.8483 -42.3156 264° West  Level FlightAware Approximate
01:35AM 46.8339 -42.5039 264° West  Level FlightAware Approximate
01:36AM 46.8191 -42.6920 264° West  Level FlightAware Approximate
01:37AM 46.8041 -42.8800 263° West  Level FlightAware Approximate
01:38AM 46.7887 -43.0680 263° West  Level FlightAware Approximate
01:39AM 46.7731 -43.2558 263° West  Level FlightAware Approximate
01:40AM 46.7571 -43.4435 263° West  Level FlightAware Approximate
01:41AM 46.7408 -43.6311 263° West  Level FlightAware Approximate
01:42AM 46.7242 -43.8185 263° West  Level FlightAware Approximate
01:43AM 46.7074 -44.0059 263° West  Level FlightAware Approximate
01:44AM 46.6902 -44.1931 262° West  Level FlightAware Approximate
01:45AM 46.6727 -44.3802 262° West  Level FlightAware Approximate
01:46AM 46.6549 -44.5672 262° West  Level FlightAware Approximate
01:47AM 46.6367 -44.7541 262° West  Level FlightAware Approximate
01:48AM 46.6183 -44.9409 262° West  Level FlightAware Approximate
01:49AM 46.5996 -45.1275 262° West  Level FlightAware Approximate
01:50AM 46.5806 -45.3140 262° West  Level FlightAware Approximate
01:51AM 46.5613 -45.5004 261° West  Level FlightAware Approximate
01:52AM 46.5417 -45.6866 261° West  Level FlightAware Approximate
01:53AM 46.5218 -45.8727 261° West  Level FlightAware Approximate
01:54AM 46.5015 -46.0586 261° West  Level FlightAware Approximate
01:55AM 46.4810 -46.2444 261° West  Level FlightAware Approximate
01:56AM 46.4602 -46.4301 261° West  Level FlightAware Approximate
01:57AM 46.4390 -46.6156 261° West  Level FlightAware Approximate
01:58AM 46.4176 -46.8010 261° West  Level FlightAware Approximate
01:59AM 46.3959 -46.9863 260° West  Level FlightAware Approximate
02:00AM 46.3739 -47.1713 260° West  Level FlightAware Approximate
02:01AM 46.3515 -47.3563 260° West  Level FlightAware Approximate
02:02AM 46.3289 -47.5411 260° West  Level FlightAware Approximate
02:03AM 46.3060 -47.7257 260° West  Level FlightAware Approximate
02:04AM 46.2828 -47.9102 260° West  Level FlightAware Approximate
02:05AM 46.2593 -48.0945 260° West  Level FlightAware Approximate
02:06AM 46.2355 -48.2787 259° West  Level FlightAware Approximate
02:07AM 46.2114 -48.4627 259° West  Level FlightAware Approximate
02:08AM 46.1870 -48.6465 259° West  Level FlightAware Approximate
02:09AM 46.1621 -48.8312 259° West  Level FlightAware Approximate
02:10AM 46.1370 -49.0158 259° West  Level FlightAware Approximate
02:11AM 46.1116 -49.2001 259° West  Level FlightAware Approximate
02:12AM 46.0859 -49.3844 259° West  Level FlightAware Approximate
02:13AM 46.0598 -49.5684 259° West  Level FlightAware Approximate
02:14AM 46.0335 -49.7523 258° West  Level FlightAware Approximate
02:14AM 45.9667 -50.1167 261° West 490 564 34,100  Level Gander Center
02:15AM 46.0069 -49.9360 258° West  Level FlightAware Approximate
02:15AM 45.9333 -50.3167 257° West 500 575 34,100  Level Gander Center
02:16AM 45.9806 -50.1193 257° West  Level FlightAware Approximate
02:16AM 45.9000 -50.5000 255° West 490 564 34,200  Level Gander Center
02:17AM 45.9507 -50.3018 257° West  Level FlightAware Approximate
02:17AM 45.8667 -50.7000 257° West 500 575 35,800  Level Gander Center
02:18AM 45.9207 -50.4832 257° West  Level FlightAware Approximate
02:18AM 45.8333 -50.9000 257° West 490 564 36,100  Level Gander Center
02:19AM 45.8903 -50.6645 257° West  Level FlightAware Approximate
02:19AM 45.8000 -51.0667 254° West 480 552 36,100  Level Gander Center
02:20AM 45.8697 -50.8480 261° West  Level Estimated
02:20AM 45.7667 -51.2167 252° West 490 564 36,100  Level Moncton Center
02:21AM 45.7333 -51.4167 257° West 480 552 36,100  Level Moncton Center
02:22AM 45.7167 -51.6167 263° West 490 564 36,100  Level Moncton Center
02:23AM 45.6833 -51.8000 255° West 490 564 36,100  Level Moncton Center
02:24AM 45.6333 -52.0000 250° West 490 564 36,100  Level Moncton Center
02:25AM 45.6333 -52.1500 270° West 490 564 36,100  Level Gander Center
02:26AM 45.6167 -52.3500 263° West 490 564 36,100 300 Level Gander Center
02:31AM 45.5090 -53.4660 263° West 491 565 38,100 300 Climbing FlightAware
02:32AM 45.4970 -53.5810 262° West 491 565 38,100  Level FlightAware
02:33AM 45.4820 -53.7140 261° West 491 565 38,100  Level FlightAware
02:33AM 45.4710 -53.8120 261° West 491 565 38,100  Level FlightAware
02:34AM 45.4560 -53.9430 261° West 491 565 38,100  Level FlightAware
02:35AM 45.4360 -54.1170 261° West 491 565 38,100  Level FlightAware
02:35AM 45.4210 -54.2480 261° West 491 565 38,100  Level FlightAware
02:36AM 45.4040 -54.3870 260° West 490 564 38,100  Level FlightAware
02:37AM 45.3890 -54.5110 260° West 490 564 38,100  Level FlightAware
02:38AM 45.3770 -54.6080 260° West 490 564 38,100  Level FlightAware
02:38AM 45.3620 -54.7330 260° West 490 564 38,100  Level FlightAware
02:39AM 45.3460 -54.8620 260° West 490 564 38,100  Level FlightAware
02:40AM 45.3340 -54.9590 260° West 490 564 38,100  Level FlightAware
02:41AM 45.3180 -55.0890 260° West 490 564 38,100  Level FlightAware
02:41AM 45.3060 -55.1860 260° West 490 564 38,100  Level FlightAware
02:42AM 45.2900 -55.3160 260° West 490 564 38,100  Level FlightAware
02:43AM 45.2730 -55.4450 259° West 490 564 38,100  Level FlightAware
02:43AM 45.2610 -55.5420 260° West 490 564 38,100  Level FlightAware
02:44AM 45.2450 -55.6740 260° West 490 564 38,100  Level FlightAware
02:45AM 45.2330 -55.7740 260° West 490 564 38,100  Level FlightAware
02:46AM 45.2160 -55.9030 259° West 490 564 38,100  Level FlightAware
02:46AM 45.2040 -56.0000 260° West 490 564 38,100  Level FlightAware
02:48AM 45.1200 -56.6070 259° West 485 558 38,100  Level FlightAware
02:49AM 45.1000 -56.7530 259° West 486 559 38,100  Level FlightAware
02:49AM 45.0810 -56.8870 259° West 485 558 38,100  Level FlightAware
02:50AM 45.0680 -56.9770 258° West 485 558 38,100  Level FlightAware
02:51AM 45.0470 -57.1200 258° West 485 558 38,100  Level FlightAware
02:51AM 45.0300 -57.2440 259° West 484 557 38,100  Level FlightAware
02:52AM 45.0100 -57.3800 258° West 484 557 38,100  Level FlightAware
02:53AM 44.9920 -57.5040 258° West 484 557 38,100  Level FlightAware
02:54AM 44.9710 -57.6400 258° West 484 557 38,100  Level FlightAware
02:54AM 44.9530 -57.7640 258° West 484 557 38,100  Level FlightAware
02:55AM 44.9340 -57.8870 258° West 484 557 38,100  Level FlightAware
02:56AM 44.9160 -58.0100 258° West 483 556 38,100  Level FlightAware
02:56AM 44.8970 -58.1330 258° West 483 556 38,100  Level FlightAware
02:57AM 44.8780 -58.2560 258° West 481 554 38,100  Level FlightAware
02:57AM 44.8620 -58.3660 258° West 479 551 38,100  Level FlightAware
02:58AM 44.8400 -58.5000 257° West 478 550 38,100  Level FlightAware
02:59AM 44.8210 -58.6210 258° West 477 549 38,100  Level FlightAware
03:00AM 44.8000 -58.7570 258° West 477 549 38,100  Level FlightAware
03:00AM 44.7820 -58.8700 257° West 477 549 38,100  Level FlightAware
03:01AM 44.7590 -59.0110 257° West 476 548 38,100  Level FlightAware
03:02AM 44.7410 -59.1200 257° West 475 547 38,100  Level FlightAware
03:02AM 44.7220 -59.2370 257° West 476 548 38,100  Level FlightAware
03:03AM 44.7010 -59.3700 258° West 476 548 38,100  Level FlightAware
03:04AM 44.6820 -59.4840 257° West 476 548 38,100  Level FlightAware
03:04AM 44.6640 -59.5920 257° West 476 548 38,100  Level FlightAware
03:05AM 44.6410 -59.7270 257° West 475 547 38,100  Level FlightAware
03:06AM 44.6210 -59.8470 257° West 474 545 38,100  Level FlightAware
03:06AM 44.5990 -59.9760 257° West 474 545 38,100  Level FlightAware
03:07AM 44.5770 -60.1010 256° West 475 547 38,100  Level FlightAware
03:08AM 44.5570 -60.2210 257° West 475 547 38,100  Level FlightAware
03:08AM 44.5350 -60.3460 256° West 475 547 38,100  Level FlightAware
03:09AM 44.5170 -60.4420 255° West 475 547 38,100  Level FlightAware
03:10AM 44.4950 -60.5700 256° West 475 547 38,100  Level FlightAware
03:10AM 44.4760 -60.6740 256° West 475 547 38,100  Level FlightAware
03:12AM 44.4400 -60.8820 256° West 477 549 38,100  Level FlightAware
03:12AM 44.4230 -60.9740 256° West 477 549 38,100  Level FlightAware
03:13AM 44.3960 -61.1260 256° West 477 549 38,100  Level FlightAware
03:14AM 44.3800 -61.2180 256° West 477 549 38,100  Level FlightAware
03:14AM 44.3450 -61.4000 255° West 473 544 38,100  Level FlightAware
03:15AM 44.3120 -61.5770 255° West 472 543 38,100  Level FlightAware
03:16AM 44.2960 -61.6680 256° West 472 543 38,100  Level FlightAware
03:17AM 44.2640 -61.8310 255° West 470 541 38,100  Level FlightAware
03:18AM 44.2400 -61.9600 255° West 470 541 38,100  Level FlightAware
03:18AM 44.2090 -62.1230 255° West 470 541 38,100  Level FlightAware
03:19AM 44.1860 -62.2400 255° West 470 541 38,100  Level FlightAware
03:20AM 44.1630 -62.3600 255° West 471 542 38,100  Level FlightAware
03:20AM 44.1410 -62.4740 255° West 472 543 38,100  Level FlightAware
03:21AM 44.1170 -62.5910 254° West 473 544 38,100  Level FlightAware
03:22AM 44.0950 -62.7080 255° West 475 547 38,100  Level FlightAware
03:23AM 44.0680 -62.8380 254° West 477 549 38,100  Level FlightAware
03:23AM 44.0450 -62.9560 255° West 478 550 38,100  Level FlightAware
03:24AM 44.0170 -63.0950 254° West 480 552 38,100  Level FlightAware
03:25AM 43.9950 -63.2050 254° West 481 554 38,100  Level FlightAware
03:25AM 43.9720 -63.3180 254° West 481 554 38,100  Level FlightAware
03:26AM 43.9460 -63.4460 254° West 482 555 38,100  Level FlightAware
03:27AM 43.9230 -63.5550 254° West 481 554 38,100  Level FlightAware
03:27AM 43.8990 -63.6730 254° West 480 552 38,100  Level FlightAware
03:28AM 43.8730 -63.7970 254° West 479 551 38,100  Level FlightAware
03:29AM 43.8490 -63.9080 253° West 477 549 38,100  Level FlightAware
03:29AM 43.8240 -64.0310 254° West 476 548 38,100  Level FlightAware
03:30AM 43.7970 -64.1560 253° West 475 547 38,100  Level FlightAware
03:31AM 43.7700 -64.2810 253° West 473 544 38,100  Level FlightAware
03:31AM 43.7430 -64.4080 254° West 472 543 38,100  Level FlightAware
03:32AM 43.7220 -64.5060 254° West 470 541 38,100  Level FlightAware
03:33AM 43.6990 -64.6090 253° West 468 539 38,100  Level FlightAware
03:33AM 43.6670 -64.7610 254° West 466 536 38,100  Level FlightAware
03:34AM 43.6480 -64.8460 253° West 464 534 38,100  Level FlightAware
03:35AM 43.6190 -64.9730 253° West 461 531 38,100  Level FlightAware
03:35AM 43.5950 -65.0860 254° West 459 528 38,100  Level FlightAware
03:36AM 43.5670 -65.2120 253° West 459 528 38,100  Level FlightAware
03:37AM 43.5440 -65.3110 252° West 461 531 38,100  Level FlightAware
03:37AM 43.5160 -65.4370 253° West 461 531 38,100  Level FlightAware
03:38AM 43.4900 -65.5500 252° West 461 531 38,100  Level FlightAware
03:39AM 43.4610 -65.6770 253° West 462 532 38,100  Level FlightAware
03:39AM 43.4410 -65.7640 252° West 463 533 38,100  Level FlightAware
03:40AM 43.4120 -65.8910 253° West 465 535 38,100  Level FlightAware
03:41AM 43.3870 -65.9990 252° West 465 535 38,100  Level FlightAware
03:41AM 43.3600 -66.1150 252° West 469 540 38,100  Level FlightAware
03:42AM 43.3340 -66.2280 252° West 471 542 38,100  Level FlightAware
03:43AM 43.3060 -66.3480 252° West 472 543 38,100  Level FlightAware
03:44AM 43.2690 -66.5050 252° West 472 543 38,100  Level FlightAware
03:44AM 43.2430 -66.6140 252° West 472 543 38,100  Level FlightAware
03:45AM 43.2220 -66.7010 252° West 472 543 38,100  Level FlightAware
03:46AM 43.1920 -66.8240 252° West 467 537 38,100  Level FlightAware
03:46AM 43.1700 -66.9120 251° West 467 537 38,100  Level FlightAware
03:47AM 43.1320 -67.0570 250° West 457 526 38,100  Level FlightAware
03:48AM 43.0930 -67.1890 248° West 460 529 38,100  Level FlightAware
03:49AM 43.0610 -67.2930 247° West 460 529 38,100  Level FlightAware
03:49AM 43.0190 -67.4270 247° West 460 529 38,100  Level FlightAware
03:50AM 42.9910 -67.5210 248° West 458 527 38,100  Level FlightAware
03:51AM 42.9360 -67.6780 244° Southwest 461 531 38,100  Level FlightAware
03:52AM 42.9000 -67.7720 242° Southwest 462 532 38,100  Level FlightAware
03:52AM 42.8570 -67.8800 242° Southwest 459 528 38,100  Level FlightAware
03:53AM 42.7940 -68.0420 242° Southwest 461 531 38,100  Level FlightAware
03:54AM 42.7610 -68.1280 242° Southwest 461 531 38,100  Level FlightAware
03:55AM 42.7300 -68.2060 242° Southwest 461 531 38,100  Level FlightAware
03:55AM 42.7010 -68.2800 242° Southwest 461 531 38,100  Level FlightAware
03:57AM 42.5930 -68.5550 242° Southwest 463 533 38,100  Level FlightAware
03:57AM 42.5500 -68.6640 242° Southwest 463 533 38,100  Level FlightAware
03:58AM 42.5090 -68.7670 242° Southwest 459 528 38,100  Level FlightAware
03:59AM 42.4620 -68.8860 242° Southwest 454 522 38,100  Level FlightAware
03:59AM 42.4210 -68.9860 241° Southwest 449 517 38,100  Level FlightAware
04:00AM 42.3800 -69.0870 241° Southwest 446 513 38,100  Level FlightAware
04:01AM 42.3360 -69.1980 242° Southwest 446 513 38,100  Level FlightAware
04:01AM 42.2970 -69.2930 241° Southwest 445 512 38,100  Level FlightAware
04:02AM 42.2620 -69.3780 241° Southwest 446 513 38,100  Level FlightAware
04:03AM 42.2170 -69.4880 241° Southwest 443 510 38,100  Level FlightAware
04:03AM 42.1770 -69.5880 242° Southwest 441 507 38,100  Level FlightAware
04:04AM 42.1380 -69.6830 241° Southwest 444 511 38,100  Level FlightAware
04:05AM 42.0970 -69.7840 241° Southwest 449 517 38,100  Level FlightAware
04:06AM 42.0570 -69.8780 240° Southwest 451 519 38,100  Level FlightAware
04:07AM 41.9910 -70.0360 241° Southwest 451 519 38,100  Level FlightAware
04:07AM 41.9360 -70.1680 241° Southwest 455 524 38,100  Level FlightAware
04:08AM 41.8790 -70.3040 241° Southwest 455 524 38,100  Level FlightAware
04:09AM 41.8230 -70.4390 241° Southwest 458 527 38,100  Level FlightAware
04:10AM 41.7820 -70.5360 240° Southwest 461 531 38,100  Level FlightAware
04:11AM 41.7420 -70.6330 241° Southwest 462 532 38,100  Level FlightAware
04:12AM 41.6750 -70.7890 240° Southwest 468 539 38,100  Level FlightAware
04:12AM 41.6360 -70.8820 241° Southwest 467 537 38,100  Level FlightAware
04:13AM 41.5920 -70.9860 241° Southwest 470 541 38,100  Level FlightAware
04:14AM 41.5430 -71.0990 240° Southwest 476 548 38,100  Level FlightAware
04:14AM 41.5000 -71.1990 240° Southwest 484 557 38,100 -780 Level FlightAware
04:15AM 41.4540 -71.3060 240° Southwest 488 562 37,100 -1,860 Descending FlightAware
04:16AM 41.4050 -71.4210 240° Southwest 465 535 35,500 -2,280 Descending FlightAware
04:16AM 41.3803 -71.4777 240° Southwest 462 532 34,600 -2,220 Descending FlightAware ADS-B
04:17AM 41.3478 -71.5504 239° Southwest 454 522 33,600 -1,740 Descending FlightAware ADS-B
04:17AM 41.3134 -71.6294 240° Southwest 446 513 32,800 -1,920 Descending FlightAware ADS-B
04:18AM 41.2817 -71.7024 240° Southwest 442 509 31,600 -2,400 Descending FlightAware ADS-B
04:18AM 41.2511 -71.7724 240° Southwest 435 501 30,400 -2,340 Descending FlightAware ADS-B
04:19AM 41.2172 -71.8499 240° Southwest 427 491 29,200 -2,280 Descending FlightAware ADS-B
04:19AM 41.1750 -71.9450 240° Southwest 416 479 27,500 -2,400 Descending FlightAware
04:20AM 41.1627 -71.9719 239° Southwest 413 475 27,000 -2,400 Descending FlightAware ADS-B
04:20AM 41.1329 -72.0409 240° Southwest 405 466 25,800 -2,340 Descending FlightAware ADS-B
04:21AM 41.1042 -72.1041 239° Southwest 397 457 24,600 -2,400 Descending FlightAware ADS-B
04:21AM 41.0761 -72.1684 240° Southwest 388 447 23,400 -2,400 Descending FlightAware ADS-B
04:22AM 41.0487 -72.2294 239° Southwest 383 441 22,200 -2,280 Descending FlightAware ADS-B
04:22AM 41.0218 -72.2893 239° Southwest 377 434 21,100 -2,280 Descending FlightAware ADS-B
04:23AM 40.9945 -72.3504 239° Southwest 372 428 19,900 -2,400 Descending FlightAware ADS-B
04:23AM 40.9679 -72.4106 240° Southwest 367 422 18,700 -2,280 Descending FlightAware ADS-B
04:24AM 40.9417 -72.4678 239° Southwest 361 415 17,600 -2,280 Descending FlightAware ADS-B
04:24AM 40.9161 -72.5245 239° Southwest 358 412 16,400 -2,400 Descending FlightAware ADS-B
04:25AM 40.8901 -72.5824 239° Southwest 354 407 15,200 -2,280 Descending FlightAware ADS-B
04:25AM 40.8650 -72.6377 239° Southwest 349 402 14,100 -2,220 Descending FlightAware ADS-B
04:26AM 40.8397 -72.6943 239° Southwest 347 399 13,000 -2,040 Descending FlightAware ADS-B
04:26AM 40.8138 -72.7520 239° Southwest 340 391 12,000 -1,080 Descending FlightAware ADS-B
04:27AM 40.7895 -72.8053 239° Southwest 322 371 11,900 -120 Descending FlightAware ADS-B
04:27AM 40.7732 -72.8409 239° Southwest 297 342 11,900  Level FlightAware ADS-B
04:28AM 40.7561 -72.8890 245° Southwest 287 330 11,900  Level FlightAware ADS-B
04:28AM 40.7396 -72.9369 246° West 286 329 11,900 -600 Level FlightAware ADS-B
04:29AM 40.7240 -72.9825 246° West 281 323 11,300 -1,380 Descending FlightAware ADS-B
04:29AM 40.7084 -73.0310 247° West 278 320 10,600 -1,440 Descending FlightAware ADS-B
04:30AM 40.6957 -73.0699 247° West 276 318 10,000 -1,320 Descending FlightAware ADS-B
04:30AM 40.6882 -73.0930 247° West 273 314 9,700 -1,020 Descending FlightAware ADS-B
04:30AM 40.6808 -73.1171 248° West 266 306 9,500 -1,080 Descending FlightAware ADS-B
04:30AM 40.6739 -73.1379 246° West 264 304 9,200 -1,320 Descending FlightAware ADS-B
04:30AM 40.6711 -73.1451 243° Southwest 263 303 9,100 -1,320 Descending FlightAware ADS-B
04:31AM 40.6658 -73.1560 237° Southwest 261 300 8,900 -1,500 Descending FlightAware ADS-B
04:31AM 40.6556 -73.1771 237° Southwest 258 297 8,500 -1,620 Descending FlightAware ADS-B
04:31AM 40.6462 -73.1956 236° Southwest 258 297 8,100 -1,680 Descending FlightAware ADS-B
04:31AM 40.6369 -73.2139 236° Southwest 257 296 7,700 -1,680 Descending FlightAware ADS-B
04:32AM 40.6268 -73.2335 236° Southwest 258 297 7,300 -1,620 Descending FlightAware ADS-B
04:32AM 40.6166 -73.2544 237° Southwest 257 296 6,900 -1,440 Descending FlightAware ADS-B
04:32AM 40.6096 -73.2671 234° Southwest 253 291 6,700 -1,020 Descending FlightAware ADS-B
04:32AM 40.6010 -73.2834 235° Southwest 248 285 6,500 -1,080 Descending FlightAware ADS-B
04:32AM 40.5908 -73.3032 236° Southwest 248 285 6,200 -1,200 Descending FlightAware ADS-B
04:33AM 40.5804 -73.3234 236° Southwest 253 291 5,900 -1,200 Descending FlightAware ADS-B
04:33AM 40.5719 -73.3401 236° Southwest 249 287 5,600 -1,080 Descending FlightAware ADS-B
04:33AM 40.5623 -73.3602 238° Southwest 242 278 5,400 -1,020 Descending FlightAware ADS-B
04:33AM 40.5539 -73.3774 237° Southwest 237 273 5,100 -1,200 Descending FlightAware ADS-B
04:34AM 40.5511 -73.3850 244° Southwest 234 269 5,000 -1,380 Descending FlightAware ADS-B
04:34AM 40.5497 -73.3904 251° West 235 270 4,900 -900 Descending FlightAware ADS-B
04:34AM 40.5488 -73.3947 255° West 238 274 4,900 -780 Level FlightAware ADS-B
04:34AM 40.5482 -73.4019 264° West 241 277 4,800 -1,200 Descending FlightAware ADS-B
04:34AM 40.5475 -73.4318 268° West 248 285 4,400 -840 Descending FlightAware ADS-B
04:35AM 40.5470 -73.4860 269° West 238 274 4,000 -660 Descending FlightAware
04:35AM 40.5463 -73.4998 266° West 233 268 3,900 -660 Descending FlightAware ADS-B
04:36AM 40.5450 -73.5540 268° West 214 246 3,500 -600 Descending FlightAware
04:36AM 40.5452 -73.5815 271° West 202 232 3,300 -900 Descending FlightAware ADS-B
04:37AM 40.5630 -73.6280 297° West 166 191 2,500 -960 Descending FlightAware
04:37AM 40.5720 -73.6480 301° West 159 183 2,200 -840 Descending FlightAware
04:37AM 40.5760 -73.6580 298° West 159 183 2,000 -900 Descending FlightAware
04:38AM 40.5870 -73.6810 302° West 151 174 1,600 -780 Descending FlightAware
04:38AM 40.5970 -73.7020 302° West 148 170 1,300 -780 Descending FlightAware
04:39AM 40.6060 -73.7240 298° West 144 166 900 -780 Descending FlightAware
04:39AM 40.6110 -73.7330 306° West 144 166 800 -720 Descending FlightAware
04:39AM 40.6210 -73.7560 300° West 149 171 400 -840 Descending FlightAware
04:40AM 40.6300 -73.7770 299° West 151 174 -900 Descending FlightAware
04:40AM 40.6350 -73.7870 303° West 150 173  Level FlightAware
04:41AM 40.6420 -73.8030 300° West 48 55  Level FlightAware
04:41AM 40.6430 -73.8040 323° Northwest 19 22  Level FlightAware
04:41AM 40.6440 -73.8030 37° Northeast 30 35  Level FlightAware
04:42AM 40.6430 -73.8000 114° Southeast 19 22  Level FlightAware
04:42AM 40.6420 -73.7990 143° Southeast 21 24  Level FlightAware
04:42AM 40.6400 -73.7960 131° Southeast 26 30  Level FlightAware
04:43AM 40.6390 -73.7930 114° Southeast 20 23  Level FlightAware
04:43AM 40.6380 -73.7910 123° Southeast 21 24  Level FlightAware
04:44AM 40.6370 -73.7880 114° Southeast 22 25  Level FlightAware
04:44AM 40.6350 -73.7860 143° Southeast 19 22  Level FlightAware
04:45AM 40.6360 -73.7830 66° East 32 37  Level FlightAware
04:45AM 40.6380 -73.7830 360° North 30 35  Level FlightAware
04:46AM 40.6390 -73.7820 37° Northeast 9 10  Level FlightAware